CheckWX is a tool to help pilots better visualize weather data.  It is not intended as a substitute for an official pre-flight weather briefing.

14:48:06 UTC

EBDT METAR
Schaffen Airport
Diest, Belgium
Current

23 mins ago

EBDT 201425Z AUTO 30007KT 9999 /// 13/11 Q1010 BLU
Observed
May-20 @ 14:25 UTC
Wind
  • 300° at 7 KTS
Visibility
10,000+ meters
Temperature
13°C / 55°F
Dewpoint
11°C / 52°F
Humidity
88%
Altimeter
29.82" Hg
Pressure
1009.92 hPa
Previous

53 mins ago

EBDT 201355Z AUTO 29008KT 9999 /// 13/11 Q1010 BLU
Observed
May-20 @ 13:55 UTC
Wind
  • 290° at 8 KTS
Visibility
10,000+ meters
Temperature
13°C / 55°F
Dewpoint
11°C / 52°F
Humidity
88%
Altimeter
29.82" Hg
Pressure
1009.92 hPa
Previous

1 hour ago

EBDT 201325Z AUTO 31007KT 9000 /// 13/11 Q1010 BLU
Observed
May-20 @ 13:25 UTC
Wind
  • 310° at 7 KTS
Visibility
8,996 meters
Temperature
13°C / 55°F
Dewpoint
11°C / 52°F
Humidity
88%
Altimeter
29.82" Hg
Pressure
1009.92 hPa